Frankfurt/Main, Germany

03:09 PM CET am 20. Januar 2017 (GMT +0100)
Frankfurt / Main | | Change Station

Höhe 371 ft 50.05 °N, 8.60 °E | Updated 19 minutes ago

Heiter
Heiter
41 °F
gefühlte 39 °F
N
4
Wind Wechselnd Wind aus Nord-Nordost

Heute
Max. -- | schwach -- °F
--% Regenrisiko
Gestern
Max. -- | schwach -- °F
Precip. -- inch
Druck 30.48 inch
Sichtweite -9999.0 Meilen
Wolken
Windchill 39 °F
Taupunkt 12 °F
Feuchtigkeit 31%
Regen 0.00 inch
Schneehöhe Nicht verfügbar..
8:13 AM 4:59 PM
Letztes Viertel, 44% visible
METAR EDDF 201350Z 03003KT 360V080 CAVOK 05/M11 Q1032 R88/0///95 NOSIG
Druck 30.48 inch
Sichtweite -9999.0 Meilen
Wolken
Windchill 39 °F
Taupunkt 12 °F
Feuchtigkeit 31%
Regen 0.00 inch
Schneehöhe Nicht verfügbar..
8:13 AM 4:59 PM
Letztes Viertel, 44% visible
METAR EDDF 201350Z 03003KT 360V080 CAVOK 05/M11 Q1032 R88/0///95 NOSIG

Get Your Daily Forecast Email!

Thanks for signing up!

Be on the lookout for a verification email in your inbox.

You'll start receiving the daily forecast at 8 AM.

×

10-Day Weather Forecast

×

Almanac

Astronomie

Jan. 20, 2017 Aufgang Untergang
Genaue Zeit
Bürgerliche Dämmerung
Nautische Dämmerung
Astronomische Dämmerung
Mond
Länge des sichtbaren Lichts
Tageslänge
Tomorrow will be .
, % of the Moon is Illuminated

Heutige Rekorde

Country Highs Country Lows

Community

WunderPhotos

Upload Photos

1,962,540 Fotos hochgeladen!

WunderBlog® & News

Nearby

Luftqualität

  Luftqualität LQ Index Schadstoff
Not available.

Schneehöhe

Station Depth Höhe

Erdbebenaktivität

Stadt Distance Mag. Time & Date
Minimum magnitude displayed is 2.5.

küstennahe Wassertemperaturen

Ort Temperatur

Stations

Wetterstationen in der Umgebung

Stationsstandort Temp. Windchill Taupunkt Feuchtigkeit Wind Precip. Höhe Aktualisiert Art